sensor_id;sensor_type;location;lat;lon;timestamp;pressure;altitude;pressure_sealevel;temperature;humidity
10464;BME280;5279;42.048;24.638;2023-08-12T00:00:33;97869.47;;;20.39;63.89
10464;BME280;5279;42.048;24.638;2023-08-12T00:03:02;97873.84;;;20.46;64.08
10464;BME280;5279;42.048;24.638;2023-08-12T00:05:29;97873.63;;;20.41;63.95
10464;BME280;5279;42.048;24.638;2023-08-12T00:07:57;97871.56;;;20.43;63.88
10464;BME280;5279;42.048;24.638;2023-08-12T00:10:24;97873.63;;;20.41;63.77
10464;BME280;5279;42.048;24.638;2023-08-12T00:12:51;97874.44;;;20.35;64.36
10464;BME280;5279;42.048;24.638;2023-08-12T00:15:20;97869.44;;;20.32;64.48
10464;BME280;5279;42.048;24.638;2023-08-12T00:17:48;97868.09;;;20.15;65.46
10464;BME280;5279;42.048;24.638;2023-08-12T00:20:16;97873.03;;;20.11;66.12
10464;BME280;5279;42.048;24.638;2023-08-12T00:22:43;97865.94;;;20.04;65.72
10464;BME280;5279;42.048;24.638;2023-08-12T00:25:10;97871.97;;;20.06;66.33
10464;BME280;5279;42.048;24.638;2023-08-12T00:27:38;97868.00;;;20.02;66.38
10464;BME280;5279;42.048;24.638;2023-08-12T00:30:06;97866.59;;;20.06;67.35
10464;BME280;5279;42.048;24.638;2023-08-12T00:32:35;97867.59;;;20.05;67.91
10464;BME280;5279;42.048;24.638;2023-08-12T00:35:03;97862.06;;;20.13;67.23
10464;BME280;5279;42.048;24.638;2023-08-12T00:37:31;97867.25;;;20.14;66.89
10464;BME280;5279;42.048;24.638;2023-08-12T00:39:58;97857.31;;;20.15;67.02
10464;BME280;5279;42.048;24.638;2023-08-12T00:42:25;97868.50;;;20.18;67.03
10464;BME280;5279;42.048;24.638;2023-08-12T00:44:52;97860.63;;;20.17;67.43
10464;BME280;5279;42.048;24.638;2023-08-12T00:47:20;97853.59;;;20.16;67.08
10464;BME280;5279;42.048;24.638;2023-08-12T00:49:50;97860.59;;;20.10;67.90
10464;BME280;5279;42.048;24.638;2023-08-12T00:52:17;97861.44;;;20.11;67.58
10464;BME280;5279;42.048;24.638;2023-08-12T00:54:45;97851.28;;;20.13;67.79
10464;BME280;5279;42.048;24.638;2023-08-12T00:57:12;97849.44;;;20.13;67.74
10464;BME280;5279;42.048;24.638;2023-08-12T00:59:40;97857.09;;;20.16;67.34
10464;BME280;5279;42.048;24.638;2023-08-12T01:02:08;97850.75;;;20.24;67.30
10464;BME280;5279;42.048;24.638;2023-08-12T01:04:35;97847.88;;;20.26;66.69
10464;BME280;5279;42.048;24.638;2023-08-12T01:07:04;97854.94;;;20.27;66.41
10464;BME280;5279;42.048;24.638;2023-08-12T01:09:32;97841.91;;;20.30;65.50
10464;BME280;5279;42.048;24.638;2023-08-12T01:12:05;97846.25;;;20.31;65.65
10464;BME280;5279;42.048;24.638;2023-08-12T01:14:37;97844.59;;;20.37;65.68
10464;BME280;5279;42.048;24.638;2023-08-12T01:17:11;97851.47;;;20.39;65.13
10464;BME280;5279;42.048;24.638;2023-08-12T01:19:41;97835.94;;;20.41;65.20
10464;BME280;5279;42.048;24.638;2023-08-12T01:22:12;97838.84;;;20.46;64.86
10464;BME280;5279;42.048;24.638;2023-08-12T01:24:43;97843.03;;;20.55;64.37
10464;BME280;5279;42.048;24.638;2023-08-12T01:27:11;97835.59;;;20.57;64.46
10464;BME280;5279;42.048;24.638;2023-08-12T01:29:41;97836.00;;;20.54;64.30
10464;BME280;5279;42.048;24.638;2023-08-12T01:32:13;97837.66;;;20.55;63.95
10464;BME280;5279;42.048;24.638;2023-08-12T01:34:49;97851.50;;;20.52;64.41
10464;BME280;5279;42.048;24.638;2023-08-12T01:37:22;97846.34;;;20.51;64.31
10464;BME280;5279;42.048;24.638;2023-08-12T01:39:52;97846.78;;;20.54;64.03
10464;BME280;5279;42.048;24.638;2023-08-12T01:42:21;97855.06;;;20.59;63.96
10464;BME280;5279;42.048;24.638;2023-08-12T01:44:50;97844.28;;;20.59;63.83
10464;BME280;5279;42.048;24.638;2023-08-12T01:47:17;97852.19;;;20.67;63.48
10464;BME280;5279;42.048;24.638;2023-08-12T01:49:44;97844.72;;;20.63;63.93
10464;BME280;5279;42.048;24.638;2023-08-12T01:52:11;97848.03;;;20.65;63.63
10464;BME280;5279;42.048;24.638;2023-08-12T01:54:39;97853.00;;;20.61;63.34
10464;BME280;5279;42.048;24.638;2023-08-12T01:57:08;97857.75;;;20.59;63.43
10464;BME280;5279;42.048;24.638;2023-08-12T01:59:36;97835.97;;;20.48;63.67
10464;BME280;5279;42.048;24.638;2023-08-12T02:02:04;97845.94;;;20.54;64.21
10464;BME280;5279;42.048;24.638;2023-08-12T02:04:32;97850.69;;;20.58;65.28
10464;BME280;5279;42.048;24.638;2023-08-12T02:07:00;97852.59;;;20.64;65.40
10464;BME280;5279;42.048;24.638;2023-08-12T02:09:27;97857.59;;;20.74;63.76
10464;BME280;5279;42.048;24.638;2023-08-12T02:11:56;97863.63;;;20.76;64.96
10464;BME280;5279;42.048;24.638;2023-08-12T02:14:24;97859.28;;;20.82;64.74
10464;BME280;5279;42.048;24.638;2023-08-12T02:16:51;97855.56;;;20.89;64.04
10464;BME280;5279;42.048;24.638;2023-08-12T02:19:19;97850.00;;;20.91;63.13
10464;BME280;5279;42.048;24.638;2023-08-12T02:21:46;97854.53;;;20.84;65.36
10464;BME280;5279;42.048;24.638;2023-08-12T02:24:14;97860.09;;;20.76;64.32
10464;BME280;5279;42.048;24.638;2023-08-12T02:26:41;97853.84;;;20.68;65.39
10464;BME280;5279;42.048;24.638;2023-08-12T02:29:08;97861.72;;;20.63;66.31
10464;BME280;5279;42.048;24.638;2023-08-12T02:31:37;97858.81;;;20.65;65.37
10464;BME280;5279;42.048;24.638;2023-08-12T02:34:04;97849.47;;;20.54;65.45
10464;BME280;5279;42.048;24.638;2023-08-12T02:36:31;97852.56;;;20.51;66.86
10464;BME280;5279;42.048;24.638;2023-08-12T02:38:59;97862.88;;;20.41;67.26
10464;BME280;5279;42.048;24.638;2023-08-12T02:41:26;97862.78;;;20.28;66.83
10464;BME280;5279;42.048;24.638;2023-08-12T02:43:53;97870.56;;;20.16;67.68
10464;BME280;5279;42.048;24.638;2023-08-12T02:46:20;97863.09;;;20.12;68.31
10464;BME280;5279;42.048;24.638;2023-08-12T02:48:49;97869.66;;;20.03;68.33
10464;BME280;5279;42.048;24.638;2023-08-12T02:51:15;97864.91;;;20.05;68.00
10464;BME280;5279;42.048;24.638;2023-08-12T02:53:43;97867.50;;;19.92;69.47
10464;BME280;5279;42.048;24.638;2023-08-12T02:56:10;97867.44;;;19.79;70.58
10464;BME280;5279;42.048;24.638;2023-08-12T02:58:38;97858.63;;;19.63;71.65
10464;BME280;5279;42.048;24.638;2023-08-12T03:01:05;97873.88;;;19.56;72.65
10464;BME280;5279;42.048;24.638;2023-08-12T03:03:33;97871.72;;;19.45;73.35
10464;BME280;5279;42.048;24.638;2023-08-12T03:06:02;97860.53;;;19.42;73.19
10464;BME280;5279;42.048;24.638;2023-08-12T03:08:29;97860.97;;;19.45;73.45
10464;BME280;5279;42.048;24.638;2023-08-12T03:11:00;97855.16;;;19.42;74.23
10464;BME280;5279;42.048;24.638;2023-08-12T03:13:27;97856.69;;;19.36;74.82
10464;BME280;5279;42.048;24.638;2023-08-12T03:15:54;97858.25;;;19.24;76.05
10464;BME280;5279;42.048;24.638;2023-08-12T03:18:21;97858.38;;;19.37;74.04
10464;BME280;5279;42.048;24.638;2023-08-12T03:20:49;97863.75;;;19.37;75.04
10464;BME280;5279;42.048;24.638;2023-08-12T03:23:17;97862.06;;;19.36;75.17
10464;BME280;5279;42.048;24.638;2023-08-12T03:25:46;97864.59;;;19.38;75.31
10464;BME280;5279;42.048;24.638;2023-08-12T03:28:13;97856.28;;;19.33;75.55
10464;BME280;5279;42.048;24.638;2023-08-12T03:30:40;97869.97;;;19.38;76.16
10464;BME280;5279;42.048;24.638;2023-08-12T03:33:08;97867.13;;;19.39;75.67
10464;BME280;5279;42.048;24.638;2023-08-12T03:35:35;97876.13;;;19.53;73.76
10464;BME280;5279;42.048;24.638;2023-08-12T03:38:02;97861.97;;;19.66;73.82
10464;BME280;5279;42.048;24.638;2023-08-12T03:40:31;97860.28;;;19.64;72.82
10464;BME280;5279;42.048;24.638;2023-08-12T03:42:58;97848.06;;;19.90;70.30
10464;BME280;5279;42.048;24.638;2023-08-12T03:45:25;97862.22;;;20.05;69.88
10464;BME280;5279;42.048;24.638;2023-08-12T03:47:53;97862.66;;;20.08;69.86
10464;BME280;5279;42.048;24.638;2023-08-12T03:50:20;97860.63;;;20.17;68.60
10464;BME280;5279;42.048;24.638;2023-08-12T03:52:47;97852.25;;;20.27;68.45
10464;BME280;5279;42.048;24.638;2023-08-12T03:55:14;97856.59;;;20.34;68.23
10464;BME280;5279;42.048;24.638;2023-08-12T03:57:43;97866.56;;;20.40;68.52
10464;BME280;5279;42.048;24.638;2023-08-12T04:00:11;97868.88;;;20.43;68.11
10464;BME280;5279;42.048;24.638;2023-08-12T04:02:39;97870.31;;;20.46;67.45
10464;BME280;5279;42.048;24.638;2023-08-12T04:05:06;97872.88;;;20.54;67.35
10464;BME280;5279;42.048;24.638;2023-08-12T04:07:35;97872.91;;;20.60;66.61
10464;BME280;5279;42.048;24.638;2023-08-12T04:10:03;97878.53;;;20.72;66.42
10464;BME280;5279;42.048;24.638;2023-08-12T04:12:30;97878.78;;;20.84;66.15
10464;BME280;5279;42.048;24.638;2023-08-12T04:14:59;97880.03;;;20.88;65.47
10464;BME280;5279;42.048;24.638;2023-08-12T04:17:29;97885.44;;;21.01;65.27
10464;BME280;5279;42.048;24.638;2023-08-12T04:19:57;97877.84;;;21.11;64.39
10464;BME280;5279;42.048;24.638;2023-08-12T04:22:24;97885.94;;;21.17;63.88
10464;BME280;5279;42.048;24.638;2023-08-12T04:24:51;97884.06;;;21.31;64.34
10464;BME280;5279;42.048;24.638;2023-08-12T04:27:19;97888.66;;;21.31;65.19
10464;BME280;5279;42.048;24.638;2023-08-12T04:29:46;97894.69;;;21.39;65.21
10464;BME280;5279;42.048;24.638;2023-08-12T04:32:15;97890.09;;;21.46;63.89
10464;BME280;5279;42.048;24.638;2023-08-12T04:34:42;97888.06;;;21.55;64.10
10464;BME280;5279;42.048;24.638;2023-08-12T04:37:09;97897.19;;;21.67;64.15
10464;BME280;5279;42.048;24.638;2023-08-12T04:39:37;97903.81;;;21.71;63.03
10464;BME280;5279;42.048;24.638;2023-08-12T04:42:04;97904.22;;;21.74;62.55
10464;BME280;5279;42.048;24.638;2023-08-12T04:44:31;97895.13;;;21.75;61.53
10464;BME280;5279;42.048;24.638;2023-08-12T04:46:58;97906.31;;;21.79;61.07
10464;BME280;5279;42.048;24.638;2023-08-12T04:49:27;97900.09;;;21.85;61.23
10464;BME280;5279;42.048;24.638;2023-08-12T04:51:54;97895.91;;;21.83;60.83
10464;BME280;5279;42.048;24.638;2023-08-12T04:54:22;97896.78;;;21.70;61.63
10464;BME280;5279;42.048;24.638;2023-08-12T04:56:49;97902.56;;;21.73;61.44
10464;BME280;5279;42.048;24.638;2023-08-12T04:59:16;97894.69;;;21.78;60.99
10464;BME280;5279;42.048;24.638;2023-08-12T05:01:44;97898.19;;;21.86;62.70
10464;BME280;5279;42.048;24.638;2023-08-12T05:04:11;97891.41;;;21.90;63.89
10464;BME280;5279;42.048;24.638;2023-08-12T05:06:40;97896.78;;;21.90;64.15
10464;BME280;5279;42.048;24.638;2023-08-12T05:09:07;97896.97;;;21.95;61.01
10464;BME280;5279;42.048;24.638;2023-08-12T05:11:34;97904.88;;;21.90;60.75
10464;BME280;5279;42.048;24.638;2023-08-12T05:14:01;97906.75;;;21.96;60.59
10464;BME280;5279;42.048;24.638;2023-08-12T05:16:29;97906.75;;;22.02;60.84
10464;BME280;5279;42.048;24.638;2023-08-12T05:18:56;97911.31;;;22.15;60.39
10464;BME280;5279;42.048;24.638;2023-08-12T05:21:23;97917.53;;;22.22;59.69
10464;BME280;5279;42.048;24.638;2023-08-12T05:23:52;97916.69;;;22.21;59.59
10464;BME280;5279;42.048;24.638;2023-08-12T05:26:19;97923.31;;;22.32;58.67
10464;BME280;5279;42.048;24.638;2023-08-12T05:28:47;97916.88;;;22.33;58.78
10464;BME280;5279;42.048;24.638;2023-08-12T05:31:14;97911.22;;;22.41;59.07
10464;BME280;5279;42.048;24.638;2023-08-12T05:33:41;97918.31;;;22.42;59.26
10464;BME280;5279;42.048;24.638;2023-08-12T05:36:08;97909.59;;;22.40;59.55
10464;BME280;5279;42.048;24.638;2023-08-12T05:38:35;97908.78;;;22.33;59.60
10464;BME280;5279;42.048;24.638;2023-08-12T05:41:04;97917.47;;;22.35;59.88
10464;BME280;5279;42.048;24.638;2023-08-12T05:43:33;97903.38;;;22.33;60.05
10464;BME280;5279;42.048;24.638;2023-08-12T05:46:00;97916.63;;;22.41;61.35
10464;BME280;5279;42.048;24.638;2023-08-12T05:48:27;97906.25;;;22.38;60.54
10464;BME280;5279;42.048;24.638;2023-08-12T05:50:54;97910.38;;;22.47;59.50
10464;BME280;5279;42.048;24.638;2023-08-12T05:53:21;97904.97;;;22.54;58.42
10464;BME280;5279;42.048;24.638;2023-08-12T05:55:49;97905.97;;;22.59;58.84
10464;BME280;5279;42.048;24.638;2023-08-12T05:58:18;97911.19;;;22.61;58.44
10464;BME280;5279;42.048;24.638;2023-08-12T06:00:45;97902.47;;;22.65;58.74
10464;BME280;5279;42.048;24.638;2023-08-12T06:03:13;97901.44;;;22.66;58.82
10464;BME280;5279;42.048;24.638;2023-08-12T06:05:41;97899.97;;;22.70;58.78
10464;BME280;5279;42.048;24.638;2023-08-12T06:08:09;97897.44;;;22.75;58.34
10464;BME280;5279;42.048;24.638;2023-08-12T06:10:36;97893.88;;;22.81;58.01
10464;BME280;5279;42.048;24.638;2023-08-12T06:13:04;97912.97;;;22.86;57.28
10464;BME280;5279;42.048;24.638;2023-08-12T06:15:32;97890.06;;;22.96;57.14
10464;BME280;5279;42.048;24.638;2023-08-12T06:17:59;97902.06;;;23.13;56.69
10464;BME280;5279;42.048;24.638;2023-08-12T06:20:27;97899.13;;;23.14;55.98
10464;BME280;5279;42.048;24.638;2023-08-12T06:22:54;97898.91;;;23.16;56.32
10464;BME280;5279;42.048;24.638;2023-08-12T06:25:21;97889.28;;;23.20;56.38
10464;BME280;5279;42.048;24.638;2023-08-12T06:27:48;97900.03;;;23.33;58.64
10464;BME280;5279;42.048;24.638;2023-08-12T06:30:15;97895.53;;;23.20;56.50
10464;BME280;5279;42.048;24.638;2023-08-12T06:32:44;97896.88;;;23.05;56.66
10464;BME280;5279;42.048;24.638;2023-08-12T06:35:11;97891.84;;;23.15;56.83
10464;BME280;5279;42.048;24.638;2023-08-12T06:37:38;97890.06;;;23.33;57.14
10464;BME280;5279;42.048;24.638;2023-08-12T06:40:07;97892.69;;;23.71;55.57
10464;BME280;5279;42.048;24.638;2023-08-12T06:42:34;97882.59;;;23.85;54.06
10464;BME280;5279;42.048;24.638;2023-08-12T06:45:02;97885.09;;;23.86;53.63
10464;BME280;5279;42.048;24.638;2023-08-12T06:47:29;97890.13;;;23.83;54.69
10464;BME280;5279;42.048;24.638;2023-08-12T06:49:58;97896.47;;;23.70;53.63
10464;BME280;5279;42.048;24.638;2023-08-12T06:52:25;97886.16;;;23.85;52.39
10464;BME280;5279;42.048;24.638;2023-08-12T06:54:53;97885.50;;;24.33;50.63
10464;BME280;5279;42.048;24.638;2023-08-12T06:57:20;97880.22;;;24.38;48.68
10464;BME280;5279;42.048;24.638;2023-08-12T06:59:47;97881.88;;;24.39;49.32
10464;BME280;5279;42.048;24.638;2023-08-12T07:02:15;97892.97;;;24.37;48.79
10464;BME280;5279;42.048;24.638;2023-08-12T07:04:42;97878.72;;;24.42;48.71
10464;BME280;5279;42.048;24.638;2023-08-12T07:07:11;97875.88;;;24.55;48.80
10464;BME280;5279;42.048;24.638;2023-08-12T07:09:38;97877.22;;;24.82;48.12
10464;BME280;5279;42.048;24.638;2023-08-12T07:12:06;97876.38;;;25.00;46.34
10464;BME280;5279;42.048;24.638;2023-08-12T07:14:33;97869.94;;;25.13;46.69
10464;BME280;5279;42.048;24.638;2023-08-12T07:17:01;97878.03;;;25.31;46.17
10464;BME280;5279;42.048;24.638;2023-08-12T07:19:28;97862.66;;;25.54;44.60
10464;BME280;5279;42.048;24.638;2023-08-12T07:21:55;97868.34;;;25.76;44.36
10464;BME280;5279;42.048;24.638;2023-08-12T07:24:24;97864.47;;;25.95;42.52
10464;BME280;5279;42.048;24.638;2023-08-12T07:26:51;97852.69;;;26.25;42.87
10464;BME280;5279;42.048;24.638;2023-08-12T07:29:19;97867.72;;;26.67;42.20
10464;BME280;5279;42.048;24.638;2023-08-12T07:31:46;97863.88;;;26.91;41.66
10464;BME280;5279;42.048;24.638;2023-08-12T07:34:13;97858.88;;;27.28;41.46
10464;BME280;5279;42.048;24.638;2023-08-12T07:36:40;97852.69;;;27.61;40.97
10464;BME280;5279;42.048;24.638;2023-08-12T07:39:07;97858.03;;;27.73;39.41
10464;BME280;5279;42.048;24.638;2023-08-12T07:41:36;97841.63;;;27.51;39.70
10464;BME280;5279;42.048;24.638;2023-08-12T07:44:03;97845.03;;;27.30;39.12
10464;BME280;5279;42.048;24.638;2023-08-12T07:46:30;97850.66;;;27.40;39.40
10464;BME280;5279;42.048;24.638;2023-08-12T07:48:58;97850.88;;;27.50;40.95
10464;BME280;5279;42.048;24.638;2023-08-12T07:51:25;97850.38;;;27.86;38.96
10464;BME280;5279;42.048;24.638;2023-08-12T07:53:52;97848.13;;;28.16;38.67
10464;BME280;5279;42.048;24.638;2023-08-12T07:56:19;97856.09;;;28.40;37.61
10464;BME280;5279;42.048;24.638;2023-08-12T07:58:48;97853.78;;;28.48;38.01
10464;BME280;5279;42.048;24.638;2023-08-12T08:01:15;97849.75;;;28.56;37.87
10464;BME280;5279;42.048;24.638;2023-08-12T08:03:42;97841.25;;;28.69;37.82
10464;BME280;5279;42.048;24.638;2023-08-12T08:06:09;97846.19;;;28.72;36.67
10464;BME280;5279;42.048;24.638;2023-08-12T08:08:37;97848.63;;;28.95;36.74
10464;BME280;5279;42.048;24.638;2023-08-12T08:11:04;97844.31;;;28.99;35.63
10464;BME280;5279;42.048;24.638;2023-08-12T08:13:32;97844.94;;;29.06;35.68
10464;BME280;5279;42.048;24.638;2023-08-12T08:16:00;97840.03;;;29.30;35.85
10464;BME280;5279;42.048;24.638;2023-08-12T08:18:27;97831.75;;;29.52;36.32
10464;BME280;5279;42.048;24.638;2023-08-12T08:20:54;97835.28;;;29.79;36.84
10464;BME280;5279;42.048;24.638;2023-08-12T08:23:21;97829.34;;;29.87;36.72
10464;BME280;5279;42.048;24.638;2023-08-12T08:25:48;97837.13;;;30.05;35.63
10464;BME280;5279;42.048;24.638;2023-08-12T08:28:15;97825.53;;;30.35;35.78
10464;BME280;5279;42.048;24.638;2023-08-12T08:30:42;97823.81;;;30.66;34.27
10464;BME280;5279;42.048;24.638;2023-08-12T08:33:10;97837.56;;;30.81;33.53
10464;BME280;5279;42.048;24.638;2023-08-12T08:35:37;97832.13;;;30.91;33.31
10464;BME280;5279;42.048;24.638;2023-08-12T08:38:04;97832.16;;;30.96;32.82
10464;BME280;5279;42.048;24.638;2023-08-12T08:40:31;97834.34;;;31.04;33.24
10464;BME280;5279;42.048;24.638;2023-08-12T08:43:01;97828.38;;;31.12;32.82
10464;BME280;5279;42.048;24.638;2023-08-12T08:45:30;97834.97;;;31.21;33.94
10464;BME280;5279;42.048;24.638;2023-08-12T08:47:59;97831.13;;;31.27;33.80
10464;BME280;5279;42.048;24.638;2023-08-12T08:50:28;97819.63;;;31.20;32.10
10464;BME280;5279;42.048;24.638;2023-08-12T08:52:56;97833.38;;;31.51;32.02
10464;BME280;5279;42.048;24.638;2023-08-12T08:55:23;97823.25;;;31.66;31.25
10464;BME280;5279;42.048;24.638;2023-08-12T08:57:50;97814.19;;;31.96;30.97
10464;BME280;5279;42.048;24.638;2023-08-12T09:00:18;97826.53;;;31.78;30.60
10464;BME280;5279;42.048;24.638;2023-08-12T09:02:46;97822.97;;;32.03;30.55
10464;BME280;5279;42.048;24.638;2023-08-12T09:05:15;97805.41;;;31.94;31.46
10464;BME280;5279;42.048;24.638;2023-08-12T09:07:44;97824.31;;;32.11;31.05
10464;BME280;5279;42.048;24.638;2023-08-12T09:10:11;97813.09;;;31.97;30.45
10464;BME280;5279;42.048;24.638;2023-08-12T09:12:38;97802.63;;;32.19;31.97
10464;BME280;5279;42.048;24.638;2023-08-12T09:15:06;97806.75;;;32.22;29.40
10464;BME280;5279;42.048;24.638;2023-08-12T09:17:34;97804.28;;;32.10;29.78
10464;BME280;5279;42.048;24.638;2023-08-12T09:20:01;97809.78;;;32.10;29.46
10464;BME280;5279;42.048;24.638;2023-08-12T09:22:32;97804.84;;;32.07;31.33
10464;BME280;5279;42.048;24.638;2023-08-12T09:25:01;97794.97;;;32.11;29.67
10464;BME280;5279;42.048;24.638;2023-08-12T09:27:30;97795.53;;;32.18;31.12
10464;BME280;5279;42.048;24.638;2023-08-12T09:29:58;97791.09;;;32.22;29.83
10464;BME280;5279;42.048;24.638;2023-08-12T09:32:25;97794.31;;;32.55;30.01
10464;BME280;5279;42.048;24.638;2023-08-12T09:34:54;97783.28;;;32.70;29.41
10464;BME280;5279;42.048;24.638;2023-08-12T09:37:23;97787.03;;;32.89;29.62
10464;BME280;5279;42.048;24.638;2023-08-12T09:39:51;97790.00;;;32.92;29.21
10464;BME280;5279;42.048;24.638;2023-08-12T09:42:19;97787.59;;;32.86;28.94
10464;BME280;5279;42.048;24.638;2023-08-12T09:44:47;97774.00;;;32.51;28.46
10464;BME280;5279;42.048;24.638;2023-08-12T09:47:14;97780.84;;;32.53;28.51
10464;BME280;5279;42.048;24.638;2023-08-12T09:49:41;97768.53;;;32.56;28.77
10464;BME280;5279;42.048;24.638;2023-08-12T09:52:08;97772.25;;;32.75;29.45
10464;BME280;5279;42.048;24.638;2023-08-12T09:54:35;97772.66;;;33.02;29.40
10464;BME280;5279;42.048;24.638;2023-08-12T09:57:04;97774.31;;;33.03;28.37
10464;BME280;5279;42.048;24.638;2023-08-12T09:59:35;97780.91;;;33.02;30.08
10464;BME280;5279;42.048;24.638;2023-08-12T10:02:03;97776.25;;;33.41;28.17
10464;BME280;5279;42.048;24.638;2023-08-12T10:04:37;97760.28;;;32.51;27.57
10464;BME280;5279;42.048;24.638;2023-08-12T10:07:07;97761.47;;;32.34;28.37
10464;BME280;5279;42.048;24.638;2023-08-12T10:09:35;97760.53;;;32.64;28.15
10464;BME280;5279;42.048;24.638;2023-08-12T10:12:03;97754.22;;;32.64;28.74
10464;BME280;5279;42.048;24.638;2023-08-12T10:14:31;97754.94;;;32.10;29.14
10464;BME280;5279;42.048;24.638;2023-08-12T10:17:00;97754.44;;;31.78;29.13
10464;BME280;5279;42.048;24.638;2023-08-12T10:19:28;97744.88;;;31.60;29.31
10464;BME280;5279;42.048;24.638;2023-08-12T10:21:56;97746.78;;;31.70;30.11
10464;BME280;5279;42.048;24.638;2023-08-12T10:24:26;97725.97;;;31.38;30.40
10464;BME280;5279;42.048;24.638;2023-08-12T10:26:53;97762.69;;;31.53;30.57
10464;BME280;5279;42.048;24.638;2023-08-12T10:29:22;97758.25;;;32.12;29.63
10464;BME280;5279;42.048;24.638;2023-08-12T10:31:49;97744.91;;;32.65;29.26
10464;BME280;5279;42.048;24.638;2023-08-12T10:34:22;97748.59;;;32.89;27.54
10464;BME280;5279;42.048;24.638;2023-08-12T10:36:54;97746.25;;;33.11;27.02
10464;BME280;5279;42.048;24.638;2023-08-12T10:39:24;97740.56;;;33.36;26.72
10464;BME280;5279;42.048;24.638;2023-08-12T10:41:54;97745.56;;;33.68;26.54
10464;BME280;5279;42.048;24.638;2023-08-12T10:44:23;97744.00;;;33.86;26.71
10464;BME280;5279;42.048;24.638;2023-08-12T10:46:53;97739.69;;;34.03;26.62
10464;BME280;5279;42.048;24.638;2023-08-12T10:49:22;97736.13;;;34.27;26.53
10464;BME280;5279;42.048;24.638;2023-08-12T10:51:50;97727.53;;;34.33;25.72
10464;BME280;5279;42.048;24.638;2023-08-12T10:54:20;97723.97;;;34.51;25.41
10464;BME280;5279;42.048;24.638;2023-08-12T10:57:09;97722.34;;;34.74;24.64
10464;BME280;5279;42.048;24.638;2023-08-12T10:59:51;97721.06;;;35.04;25.14
10464;BME280;5279;42.048;24.638;2023-08-12T11:02:19;97715.59;;;35.36;24.74
10464;BME280;5279;42.048;24.638;2023-08-12T11:04:51;97710.75;;;35.47;23.78
10464;BME280;5279;42.048;24.638;2023-08-12T11:07:19;97712.25;;;35.39;23.18
10464;BME280;5279;42.048;24.638;2023-08-12T11:09:51;97706.94;;;35.43;22.91
10464;BME280;5279;42.048;24.638;2023-08-12T11:12:28;97714.94;;;35.07;24.82
10464;BME280;5279;42.048;24.638;2023-08-12T11:14:57;97710.97;;;34.57;24.48
10464;BME280;5279;42.048;24.638;2023-08-12T11:17:36;97719.13;;;34.86;23.82
10464;BME280;5279;42.048;24.638;2023-08-12T11:20:06;97713.91;;;35.03;24.98
10464;BME280;5279;42.048;24.638;2023-08-12T11:22:36;97707.97;;;34.96;23.96
10464;BME280;5279;42.048;24.638;2023-08-12T11:25:04;97693.06;;;34.97;24.62
10464;BME280;5279;42.048;24.638;2023-08-12T11:27:38;97701.28;;;35.02;24.16
10464;BME280;5279;42.048;24.638;2023-08-12T11:30:06;97704.91;;;35.16;25.02
10464;BME280;5279;42.048;24.638;2023-08-12T11:32:33;97698.44;;;35.07;24.65
10464;BME280;5279;42.048;24.638;2023-08-12T11:35:01;97697.03;;;35.09;24.27
10464;BME280;5279;42.048;24.638;2023-08-12T11:37:31;97694.03;;;35.25;23.79
10464;BME280;5279;42.048;24.638;2023-08-12T11:39:58;97682.53;;;35.36;23.12
10464;BME280;5279;42.048;24.638;2023-08-12T11:42:25;97698.56;;;34.97;23.33
10464;BME280;5279;42.048;24.638;2023-08-12T11:44:52;97696.56;;;34.84;23.11
10464;BME280;5279;42.048;24.638;2023-08-12T11:47:19;97689.91;;;34.47;23.64
10464;BME280;5279;42.048;24.638;2023-08-12T11:49:45;97690.69;;;34.05;24.03
10464;BME280;5279;42.048;24.638;2023-08-12T11:52:13;97681.41;;;34.25;24.14
10464;BME280;5279;42.048;24.638;2023-08-12T11:54:42;97690.88;;;34.56;24.71
10464;BME280;5279;42.048;24.638;2023-08-12T11:57:09;97679.53;;;34.82;25.21
10464;BME280;5279;42.048;24.638;2023-08-12T11:59:36;97687.88;;;34.77;25.09
10464;BME280;5279;42.048;24.638;2023-08-12T12:02:04;97688.47;;;35.11;24.72
10464;BME280;5279;42.048;24.638;2023-08-12T12:04:31;97686.22;;;35.13;23.78
10464;BME280;5279;42.048;24.638;2023-08-12T12:06:58;97676.31;;;35.12;24.87
10464;BME280;5279;42.048;24.638;2023-08-12T12:09:31;97683.47;;;34.94;24.80
10464;BME280;5279;42.048;24.638;2023-08-12T12:11:59;97672.59;;;34.66;24.50
10464;BME280;5279;42.048;24.638;2023-08-12T12:14:29;97673.09;;;34.06;24.96
10464;BME280;5279;42.048;24.638;2023-08-12T12:16:55;97670.41;;;34.25;25.40
10464;BME280;5279;42.048;24.638;2023-08-12T12:19:23;97663.28;;;34.43;25.74
10464;BME280;5279;42.048;24.638;2023-08-12T12:21:52;97658.34;;;34.21;25.56
10464;BME280;5279;42.048;24.638;2023-08-12T12:24:20;97654.50;;;34.22;25.23
10464;BME280;5279;42.048;24.638;2023-08-12T12:26:47;97651.00;;;34.35;24.70
10464;BME280;5279;42.048;24.638;2023-08-12T12:29:15;97656.09;;;34.47;24.36
10464;BME280;5279;42.048;24.638;2023-08-12T12:31:42;97645.94;;;34.42;24.39
10464;BME280;5279;42.048;24.638;2023-08-12T12:34:09;97638.88;;;34.36;25.45
10464;BME280;5279;42.048;24.638;2023-08-12T12:36:37;97649.88;;;34.36;25.33
10464;BME280;5279;42.048;24.638;2023-08-12T12:39:05;97644.47;;;34.50;25.34
10464;BME280;5279;42.048;24.638;2023-08-12T12:41:32;97641.41;;;34.51;25.13
10464;BME280;5279;42.048;24.638;2023-08-12T12:43:59;97641.31;;;34.62;25.21
10464;BME280;5279;42.048;24.638;2023-08-12T12:46:28;97634.09;;;34.23;24.98
10464;BME280;5279;42.048;24.638;2023-08-12T12:48:55;97621.78;;;34.39;25.39
10464;BME280;5279;42.048;24.638;2023-08-12T12:51:22;97621.31;;;34.32;24.95
10464;BME280;5279;42.048;24.638;2023-08-12T12:53:49;97624.97;;;34.28;26.05
10464;BME280;5279;42.048;24.638;2023-08-12T12:56:16;97619.09;;;34.16;25.59
10464;BME280;5279;42.048;24.638;2023-08-12T12:58:43;97627.66;;;34.09;25.51
10464;BME280;5279;42.048;24.638;2023-08-12T13:01:10;97607.09;;;33.83;26.25
10464;BME280;5279;42.048;24.638;2023-08-12T13:03:38;97621.84;;;33.92;26.42